Atlantico Due — ORUW — position and weather

sailwx.info

Track history (hours):
 
Tides and Currents Weather Stations Pressure Air Temp Water Temp Dewpoint Dewpoint Depression Visibility Wind Speed Wind Dir Waves Ship Positions

Atlantico Due

Last reported at 2016-Sep-26 02:31 UTC. Time now 2016-Sep-26 08:47 UTC.
Position N 51°19' E 003°12'.

Length 100 m; draft 5.8 m.

Type: Dredging. MMSI: 205062000.

Date/timePositionNaut miles runAvg speedWind from/ knotsBaromVisibWave heightAir tempDewpointWater temp
2016-Sep-26 02:31N 51°19' E 003°12'0 0.0
2016-Sep-26 01:31N 51°19' E 003°12'0 0.0
2016-Sep-26 00:31N 51°19' E 003°12'0 0.0
2016-Sep-25 21:31N 51°19' E 003°12'0 0.0
2016-Sep-25 17:28N 51°19' E 003°12'0 0.0
2016-Sep-25 16:31N 51°19' E 003°12'0 0.0
2016-Sep-25 15:31N 51°19' E 003°12'0 0.0
2016-Sep-25 14:31N 51°19' E 003°12'0 0.0
2016-Sep-25 12:31N 51°19' E 003°12'0 0.0
2016-Sep-25 11:31N 51°19' E 003°12'0 0.0
2016-Sep-25 10:31N 51°19' E 003°12'0 0.0
2016-Sep-25 09:31N 51°19' E 003°12'0 0.0
2016-Sep-25 07:31N 51°19' E 003°12'0 0.0
2016-Sep-25 04:31N 51°19' E 003°12'0 0.0
2016-Sep-25 00:31N 51°19' E 003°12'0 0.0
2016-Sep-24 22:31N 51°19' E 003°12'0 0.0
2016-Sep-24 21:31N 51°19' E 003°12'0 0.0
2016-Sep-24 19:31N 51°19' E 003°12'0 0.0
2016-Sep-24 18:31N 51°19' E 003°12'0 0.0
2016-Sep-24 17:31N 51°19' E 003°12'0 0.0
2016-Sep-24 16:31N 51°19' E 003°12'0 0.0
2016-Sep-24 14:31N 51°19' E 003°12'0 0.0
2016-Sep-24 12:31N 51°19' E 003°12'0 0.0
2016-Sep-24 10:31N 51°19' E 003°12'0 0.0
2016-Sep-24 09:31N 51°19' E 003°12'0 0.0
2016-Sep-24 03:31N 51°19' E 003°12'0 0.0
2016-Sep-24 02:31N 51°19' E 003°12'0 0.0
2016-Sep-24 01:31N 51°19' E 003°12'0 0.0
2016-Sep-24 00:31N 51°19' E 003°12'0 0.0
2016-Sep-23 19:31N 51°19' E 003°12'0 0.0
2016-Sep-23 17:31N 51°19' E 003°12'0 0.0
2016-Sep-23 16:31N 51°19' E 003°12'0 0.0
2016-Sep-23 15:31N 51°19' E 003°12'0 0.0
2016-Sep-23 13:31N 51°19' E 003°12'0 0.0
2016-Sep-23 09:31N 51°19' E 003°12'0 0.0
2016-Sep-23 06:31N 51°19' E 003°12'0 0.0
2016-Sep-23 04:31N 51°19' E 003°12'0 0.0
2016-Sep-23 03:31N 51°19' E 003°12'0 0.0
2016-Sep-23 02:31N 51°19' E 003°12'0 0.0
2016-Sep-23 01:31N 51°19' E 003°12'0 0.0
2016-Sep-23 00:31N 51°19' E 003°12'0 0.0
2016-Sep-22 23:31N 51°19' E 003°12'0 0.0
2016-Sep-22 20:31N 51°19' E 003°12'1 0.1
2016-Sep-22 12:33N 51°19' E 003°13'0 0.0
2016-Sep-22 04:33N 51°19' E 003°13'0 0.0
2016-Sep-22 03:33N 51°19' E 003°13'0 0.0
2016-Sep-22 00:33N 51°19' E 003°13'0 0.0
2016-Sep-21 23:33N 51°19' E 003°13'0 0.0
2016-Sep-21 22:33N 51°19' E 003°13'0 0.0
2016-Sep-21 19:33N 51°19' E 003°13'0 0.0
2016-Sep-21 16:33N 51°19' E 003°13'0 0.0
2016-Sep-21 09:33N 51°19' E 003°13'0 0.0
2016-Sep-21 08:33N 51°19' E 003°13'0 0.0
2016-Sep-21 05:33N 51°19' E 003°13'0 0.0
2016-Sep-21 03:33N 51°19' E 003°13'0 0.0
2016-Sep-21 02:33N 51°19' E 003°13'0 0.0
2016-Sep-20 17:33N 51°19' E 003°13'0 0.0
2016-Sep-20 14:33N 51°19' E 003°13'0 0.0
2016-Sep-20 13:33N 51°19' E 003°13'0 0.0
2016-Sep-20 10:33N 51°19' E 003°13'0 0.0
2016-Sep-20 08:33N 51°19' E 003°13'0 0.0
2016-Sep-20 07:33N 51°19' E 003°13'0 0.0
2016-Sep-20 06:33N 51°19' E 003°13'0 0.0
2016-Sep-20 02:33N 51°19' E 003°13'0 0.0
2016-Sep-19 23:33N 51°19' E 003°13'2 0.5
2016-Sep-19 19:34N 51°21' E 003°12'7 7.0
2016-Sep-19 18:33N 51°22' E 003°01'15 7.6
2016-Sep-19 16:33N 51°22' E 002°37'5 2.4
2016-Sep-19 14:33N 51°22' E 002°29'3 3.0
2016-Sep-19 13:33N 51°20' E 002°25'9 9.2
2016-Sep-19 12:33N 51°16' E 002°12'1110.3
2016-Sep-19 11:32N 51°10' E 001°58'  
Track history (hours):
 
Tides and Currents Weather Stations Pressure Air Temp Water Temp Dewpoint Dewpoint Depression Visibility Wind Speed Wind Dir Waves Ship Positions

Atlantico Due

Last reported at 2016-Sep-26 02:31 UTC. Time now 2016-Sep-26 08:47 UTC.
Position N 51°19' E 003°12'.

Length 100 m; draft 5.8 m.

Type: Dredging. MMSI: 205062000.

Date/timePositionNaut miles runAvg speedWind from/ knotsBaromVisibWave heightAir tempDewpointWater temp
2016-Sep-26 02:31N 51°19' E 003°12'0 0.0
2016-Sep-26 01:31N 51°19' E 003°12'0 0.0
2016-Sep-26 00:31N 51°19' E 003°12'0 0.0
2016-Sep-25 21:31N 51°19' E 003°12'0 0.0
2016-Sep-25 17:28N 51°19' E 003°12'0 0.0
2016-Sep-25 16:31N 51°19' E 003°12'0 0.0
2016-Sep-25 15:31N 51°19' E 003°12'0 0.0
2016-Sep-25 14:31N 51°19' E 003°12'0 0.0
2016-Sep-25 12:31N 51°19' E 003°12'0 0.0
2016-Sep-25 11:31N 51°19' E 003°12'0 0.0
2016-Sep-25 10:31N 51°19' E 003°12'0 0.0
2016-Sep-25 09:31N 51°19' E 003°12'0 0.0
2016-Sep-25 07:31N 51°19' E 003°12'0 0.0
2016-Sep-25 04:31N 51°19' E 003°12'0 0.0
2016-Sep-25 00:31N 51°19' E 003°12'0 0.0
2016-Sep-24 22:31N 51°19' E 003°12'0 0.0
2016-Sep-24 21:31N 51°19' E 003°12'0 0.0
2016-Sep-24 19:31N 51°19' E 003°12'0 0.0
2016-Sep-24 18:31N 51°19' E 003°12'0 0.0
2016-Sep-24 17:31N 51°19' E 003°12'0 0.0
2016-Sep-24 16:31N 51°19' E 003°12'0 0.0
2016-Sep-24 14:31N 51°19' E 003°12'0 0.0
2016-Sep-24 12:31N 51°19' E 003°12'0 0.0
2016-Sep-24 10:31N 51°19' E 003°12'0 0.0
2016-Sep-24 09:31N 51°19' E 003°12'0 0.0
2016-Sep-24 03:31N 51°19' E 003°12'0 0.0
2016-Sep-24 02:31N 51°19' E 003°12'0 0.0
2016-Sep-24 01:31N 51°19' E 003°12'0 0.0
2016-Sep-24 00:31N 51°19' E 003°12'0 0.0
2016-Sep-23 19:31N 51°19' E 003°12'0 0.0
2016-Sep-23 17:31N 51°19' E 003°12'0 0.0
2016-Sep-23 16:31N 51°19' E 003°12'0 0.0
2016-Sep-23 15:31N 51°19' E 003°12'0 0.0
2016-Sep-23 13:31N 51°19' E 003°12'0 0.0
2016-Sep-23 09:31N 51°19' E 003°12'0 0.0
2016-Sep-23 06:31N 51°19' E 003°12'0 0.0
2016-Sep-23 04:31N 51°19' E 003°12'0 0.0
2016-Sep-23 03:31N 51°19' E 003°12'0 0.0
2016-Sep-23 02:31N 51°19' E 003°12'0 0.0
2016-Sep-23 01:31N 51°19' E 003°12'0 0.0
2016-Sep-23 00:31N 51°19' E 003°12'0 0.0
2016-Sep-22 23:31N 51°19' E 003°12'0 0.0
2016-Sep-22 20:31N 51°19' E 003°12'1 0.1
2016-Sep-22 12:33N 51°19' E 003°13'0 0.0
2016-Sep-22 04:33N 51°19' E 003°13'0 0.0
2016-Sep-22 03:33N 51°19' E 003°13'0 0.0
2016-Sep-22 00:33N 51°19' E 003°13'0 0.0
2016-Sep-21 23:33N 51°19' E 003°13'0 0.0
2016-Sep-21 22:33N 51°19' E 003°13'0 0.0
2016-Sep-21 19:33N 51°19' E 003°13'0 0.0
2016-Sep-21 16:33N 51°19' E 003°13'0 0.0
2016-Sep-21 09:33N 51°19' E 003°13'0 0.0
2016-Sep-21 08:33N 51°19' E 003°13'0 0.0
2016-Sep-21 05:33N 51°19' E 003°13'0 0.0
2016-Sep-21 03:33N 51°19' E 003°13'0 0.0
2016-Sep-21 02:33N 51°19' E 003°13'0 0.0
2016-Sep-20 17:33N 51°19' E 003°13'0 0.0
2016-Sep-20 14:33N 51°19' E 003°13'0 0.0
2016-Sep-20 13:33N 51°19' E 003°13'0 0.0
2016-Sep-20 10:33N 51°19' E 003°13'0 0.0
2016-Sep-20 08:33N 51°19' E 003°13'0 0.0
2016-Sep-20 07:33N 51°19' E 003°13'0 0.0
2016-Sep-20 06:33N 51°19' E 003°13'0 0.0
2016-Sep-20 02:33N 51°19' E 003°13'0 0.0
2016-Sep-19 23:33N 51°19' E 003°13'2 0.5
2016-Sep-19 19:34N 51°21' E 003°12'7 7.0
2016-Sep-19 18:33N 51°22' E 003°01'15 7.6
2016-Sep-19 16:33N 51°22' E 002°37'5 2.4
2016-Sep-19 14:33N 51°22' E 002°29'3 3.0
2016-Sep-19 13:33N 51°20' E 002°25'9 9.2
2016-Sep-19 12:33N 51°16' E 002°12'1110.3
2016-Sep-19 11:32N 51°10' E 001°58'  

Dump ship's entire track history